Flight Track Log - Related Links

Times and Time Zones

All times are in EDT time to prevent confusion due to time zone crossing. See the EJA831 flight status page for this flight to view local times or setup timezone preferences in your user account.

Time Position Orientation Groundspeed Altitude Reporting Facility
EDT Latitude Longitude Course Direction KTS MPH feet Rate Location/Type
Fri 05:04:42 PM 36.6167 -121.9000 332° Northwest 214 246 3,300  Level Northern Cal TRACON
Fri 05:05:42 PM 36.6667 -121.9333 332° Northwest 240 276 7,800 3,550 Climbing Northern Cal TRACON
Fri 05:06:42 PM 36.7333 -122.0000 321° Northwest 271 312 10,400 2,400 Climbing Northern Cal TRACON
Fri 05:07:42 PM 36.7833 -122.0667 313° West 307 353 12,600 2,400 Climbing Northern Cal TRACON
Fri 05:08:42 PM 36.8500 -122.1333 321° Northwest 312 359 15,200 2,563 Climbing Northern Cal TRACON
Fri 05:09:18 PM 36.8806 -122.1872 305° West 312 359 16,700 2,412 Climbing Oakland Center
Fri 05:10:19 PM 36.9431 -122.2628 316° Northwest 312 359 19,100 2,390 Climbing Oakland Center
Fri 05:11:21 PM 37.0069 -122.3389 316° Northwest 317 365 21,600 2,323 Climbing Oakland Center
Fri 05:12:23 PM 37.0722 -122.4181 316° Northwest 325 374 23,900 2,049 Climbing Oakland Center
Fri 05:13:24 PM 37.1550 -122.4706 333° Northwest 343 395 25,800 1,756 Climbing Oakland Center
Fri 05:14:26 PM 37.2464 -122.5108 341° North 349 402 27,500 1,742 Climbing Oakland Center
Fri 05:15:28 PM 37.3597 -122.5539 343° North 353 406 29,400 2,129 Climbing Oakland Center
Fri 05:16:30 PM 37.4567 -122.5564 359° North 347 399 31,900 1,268 Climbing Oakland Center
Fri 05:17:31 PM 37.5575 -122.5689 354° North 361 415 32,000 49 Climbing Oakland Center
Fri 05:18:33 PM 37.6658 -122.5972 348° North 393 452 32,000  Level Oakland Center
Fri 05:19:35 PM 37.7764 -122.6267 348° North 402 463 32,000  Level Oakland Center
Fri 05:20:36 PM 37.8944 -122.6569 349° North 406 467 32,000  Level Oakland Center
Fri 05:21:38 PM 38.0081 -122.6892 347° North 411 473 32,000  Level Oakland Center
Fri 05:22:40 PM 38.1189 -122.7172 349° North 408 470 32,000  Level Oakland Center
Fri 05:23:41 PM 38.2292 -122.7464 348° North 405 466 32,000  Level Oakland Center
Fri 05:24:43 PM 38.3394 -122.7764 348° North 406 467 32,000  Level Oakland Center
Fri 05:25:45 PM 38.4511 -122.8056 348° North 407 468 32,000  Level Oakland Center
Fri 05:26:47 PM 38.5831 -122.8422 348° North 406 467 32,000  Level Oakland Center
Fri 05:27:48 PM 38.6942 -122.8717 348° North 408 470 32,000  Level Oakland Center
Fri 05:28:50 PM 38.8047 -122.9017 348° North 409 471 32,000  Level Oakland Center
Fri 05:29:52 PM 38.9161 -122.9319 348° North 410 472 32,000  Level Oakland Center
Fri 05:30:53 PM 39.0264 -122.9625 348° North 407 468 32,000  Level Oakland Center
Fri 05:31:55 PM 39.1364 -122.9931 348° North 408 470 32,000  Level Oakland Center
Fri 05:32:57 PM 39.2439 -123.0239 347° North 398 458 32,000  Level Oakland Center
Fri 05:33:58 PM 39.3725 -123.0583 348° North 394 453 32,000  Level Oakland Center
Fri 05:35:00 PM 39.4850 -123.0883 348° North 393 452 32,000  Level Oakland Center
Fri 05:36:02 PM 39.5925 -123.1194 347° North 395 455 32,000  Level Oakland Center
Fri 05:37:03 PM 39.7011 -123.1497 348° North 398 458 32,000  Level Oakland Center
Fri 05:38:05 PM 39.8092 -123.1811 347° North 397 457 32,000  Level Oakland Center
Fri 05:39:07 PM 39.9175 -123.2106 348° North 396 456 32,000  Level Oakland Center
Fri 05:40:09 PM 40.0356 -123.2436 348° North 395 455 32,000  Level Oakland Center
Fri 05:41:10 PM 40.1419 -123.2736 348° North 393 452 32,000  Level Oakland Center
Fri 05:42:12 PM 40.2472 -123.3033 348° North 390 449 32,000  Level Oakland Center
Fri 05:43:14 PM 40.3539 -123.3333 348° North 393 452 32,000  Level Oakland Center
Fri 05:44:15 PM 40.4586 -123.3631 348° North 389 448 32,000  Level Oakland Center
Fri 05:45:17 PM 40.5639 -123.3942 347° North 391 450 32,000  Level Oakland Center
Fri 05:46:19 PM 40.6906 -123.4303 348° North 391 450 32,000  Level Oakland Center
Fri 05:47:21 PM 40.7967 -123.4603 348° North 392 451 32,000  Level Oakland Center
Fri 05:48:26 PM 40.9039 -123.4914 348° North 392 451 32,000  Level Seattle Center
Fri 05:49:27 PM 41.0097 -123.5222 348° North 393 452 32,000  Level Seattle Center
Fri 05:50:28 PM 41.1169 -123.5528 348° North 395 455 32,000  Level Seattle Center
Fri 05:51:29 PM 41.2450 -123.5908 347° North 395 455 32,000  Level Seattle Center
Fri 05:52:30 PM 41.3519 -123.6211 348° North 394 453 32,000  Level Seattle Center
Fri 05:53:32 PM 41.4581 -123.6506 348° North 393 452 32,000  Level Seattle Center
Fri 05:54:33 PM 41.5636 -123.6817 348° North 391 450 32,000  Level Seattle Center
Fri 05:55:34 PM 41.6697 -123.7144 347° North 389 448 32,000  Level Seattle Center
Fri 05:56:35 PM 41.7736 -123.7450 348° North 384 442 32,000 -689 Level Seattle Center
Fri 05:57:36 PM 41.8767 -123.7750 348° North 379 436 30,600 -1,672 Descending Seattle Center
Fri 05:58:37 PM 41.9775 -123.8047 348° North 372 428 28,600 -1,951 Descending Seattle Center
Fri 05:59:39 PM 42.0811 -123.8364 347° North 380 437 26,600 -2,146 Descending Seattle Center
Fri 06:00:40 PM 42.2028 -123.8711 348° North 386 444 24,200 -2,164 Descending Seattle Center
Fri 06:01:41 PM 42.3069 -123.9036 347° North 385 443 22,200 -1,967 Descending Seattle Center
Fri 06:02:42 PM 42.4078 -123.9317 348° North 372 428 20,200 -1,918 Descending Seattle Center
Fri 06:03:43 PM 42.5036 -123.9639 346° North 360 414 18,300 -1,721 Descending Seattle Center
Fri 06:04:44 PM 42.6006 -123.9928 348° North 358 412 16,700 -1,721 Descending Seattle Center
Fri 06:05:45 PM 42.6922 -124.0167 349° North 324 373 14,800 -1,820 Descending Seattle Center
Fri 06:06:46 PM 42.7708 -124.0397 348° North 294 338 13,000 -1,770 Descending Seattle Center
Fri 06:07:47 PM 42.8489 -124.0611 349° North 288 331 11,200 -1,770 Descending Seattle Center
Fri 06:08:48 PM 42.9239 -124.0825 348° North 278 320 9,400 -1,805 Descending Seattle Center
Fri 06:09:50 PM 43.0033 -124.1061 348° North 274 315 7,500 -1,854 Descending Seattle Center
Fri 06:10:51 PM 43.0772 -124.1303 347° North 273 314 5,600 -1,721 Descending Seattle Center
Fri 06:11:52 PM 43.1467 -124.1478 350° North 266 306 4,000 -787 Descending Seattle Center
Fri 06:12:53 PM 43.2119 -124.1650 349° North 253 291 4,000 -49 Level Seattle Center
Fri 06:13:54 PM 43.2475 -124.1042 51° Northeast 234 269 3,900 -49 Descending Seattle Center
Fri 06:14:55 PM 43.2783 -124.0275 61° Northeast 223 257 3,900  Level Seattle Center
Fri 06:15:56 PM 43.3189 -123.9778 42° Northeast 218 251 3,900  Level Seattle Center
Fri 06:16:57 PM 43.3831 -123.9403 23° Northeast 216 249 3,900  Level Seattle Center
Fri 06:17:58 PM 43.4092 -123.9908 305° West 193 222 3,900 -390 Level Seattle Center
Fri 06:19:00 PM 43.4122 -124.0542 274° West 170 196 3,100 -683 Descending Seattle Center
Fri 06:20:01 PM 43.4142 -124.1142 273° West 161 185 2,500 -590 Descending Seattle Center
Fri 06:21:02 PM 43.4156 -124.1761 272° West 160 184 1,900 -443 Descending Seattle Center
Fri 06:22:03 PM 43.4164 -124.2272 271° West 159 183 1,600 -295 Descending Seattle Center
Fri 06:24:00 PM 43.4167 -124.2333 283° West  Level FlightAware Approximate

Login

Don't have an account? Register now (free) for customized features, flight alerts, and more!